Nuiqsut Airport Nuiqsut US
ICAO: PAQT
IATA:
Category: Medium
Scheduled Services:

Elevation: 38 ft
TransAlt. 0 ft.

Airport Communications:
ANCHORAGE CNTR:119.4
ASOS:122.5
CTAF:122.8
DEADHORSE RDO:122.5

PAQT Zoom In..

If you have problems with the map follow the link
https://www.worldairports.se/pages/airport.php?
ICAO=PAQT

Runways:

(A) RW 05 length 4589 ft width 100 ft
---- / hdg 49

(B) RW 23 length 4589 ft width 100 ft
---- / hdg 229

Location; PAQT
Day. 21 / Time. 07.50 Zulu
* Altimeter: 29.92
* Temperature: -06° c. -21.2°f.
* Wind from: 080° Speed 12 kn.
Dewpoint: -06° c.
Visibility: 5 Statute Miles.
Clouds: Overcast 400 ft.
Conditions: Mist.

PAQT 210750Z AUTO 08012KT 5SM BR OVC004 M06/M06 A2992 RMK AO2 SNB33E45 P0000 TSNO


Wind From 080°
Speed 12 kn.

 
 
jpsmedia.com for Web Design worldairports.se 2018   terms of use